Stations météo

réclame
Mon MeteoGroup
Sule Skerry, Grande-Bretagne (3010): Température de l'air & dewpoint: 10.08.2018 03:00:00 - 16.08.2018 03:00:00 (BST)Sule Skerry, Grande-Bretagne (3010): Vitesse du vent & gusts: 10.08.2018 03:00:00 - 16.08.2018 03:00:00 (BST)Sule Skerry, Grande-Bretagne (3010): Direction du vent: 10.08.2018 03:00:00 - 16.08.2018 03:00:00 (BST)Sule Skerry, Grande-Bretagne (3010): reduced air pressure: 10.08.2018 03:00:00 - 16.08.2018 03:00:00 (BST)
Date & Time tt [°C] td [°C] ff [km/h] ff [knt] fx [km/h] fx [knt] dd ppp [hPa]
16.08.2018 03:00:00 - - - - - - - -
16.08.2018 02:00:00 12,8 10,0 31 17 - - SSW 1000,0
16.08.2018 01:00:00 12,8 10,3 31 17 - - SSW 1000,0
16.08.2018 00:00:00 12,9 10,4 28 15 - - SSW 1000,0
15.08.2018 23:00:00 13,1 9,9 26 14 - - SW 999,8
15.08.2018 22:00:00 13,0 11,0 22 12 52 28 SW 999,4
15.08.2018 21:00:00 13,1 11,2 41 22 67 36 SSW 999,0
15.08.2018 20:00:00 13,4 10,8 37 20 54 29 SSW 998,8
15.08.2018 19:00:00 13,6 9,9 46 25 63 34 SSW 999,2
15.08.2018 18:00:00 13,7 10,0 34 18 55 30 SSW 1000,0
15.08.2018 17:00:00 13,2 9,2 48 26 65 35 SSW 1000,6
15.08.2018 16:00:00 13,8 11,2 34 18 52 28 SSW 1001,0
15.08.2018 15:00:00 13,5 11,3 31 17 - - SSW 1001,4
15.08.2018 14:00:00 13,7 10,8 29 16 - - SW 1002,0
15.08.2018 13:00:00 13,8 11,2 31 17 - - SSW 1002,4
15.08.2018 12:00:00 13,7 11,4 28 15 - - SW 1002,2
15.08.2018 11:00:00 13,8 12,2 28 15 - - SSW 1002,8
15.08.2018 10:00:00 13,7 12,2 24 13 - - SSW 1003,0
15.08.2018 09:00:00 13,1 12,0 26 14 - - SSW 1003,0
15.08.2018 08:00:00 12,7 11,4 31 17 - - SSW 1002,8
15.08.2018 07:00:00 13,2 10,8 21 11 - - S 1003,2
15.08.2018 06:00:00 13,1 10,9 26 14 - - SSW 1003,6
15.08.2018 05:00:00 13,1 10,9 29 16 - - SSW 1003,6
15.08.2018 04:00:00 13,3 11,2 22 12 - - SSW 1004,2
15.08.2018 03:00:00 13,1 11,2 16 9 - - SW 1005,0
15.08.2018 02:00:00 13,3 11,8 18 10 - - SW 1005,6
15.08.2018 01:00:00 13,4 12,6 22 12 - - SW 1005,4
15.08.2018 00:00:00 12,8 12,1 35 19 - - WSW 1005,6
14.08.2018 23:00:00 13,1 12,4 16 9 - - WSW 1005,6
14.08.2018 22:00:00 13,1 12,4 15 8 - - SW 1005,6
14.08.2018 21:00:00 13,1 12,4 11 6 - - SW 1005,6
14.08.2018 20:00:00 13,1 12,4 8 4 - - WSW 1005,6
14.08.2018 19:00:00 13,1 12,3 5 3 - - SSW 1005,2
14.08.2018 18:00:00 13,2 12,4 8 4 - - SSW 1005,2
14.08.2018 17:00:00 13,1 12,3 11 6 - - WSW 1005,6
14.08.2018 16:00:00 13,2 12,3 21 11 - - SSW 1006,0
14.08.2018 15:00:00 13,4 12,4 21 11 - - SW 1006,0
14.08.2018 14:00:00 13,5 12,4 22 12 - - SSW 1006,0
14.08.2018 13:00:00 13,7 12,6 21 11 - - SSW 1006,2
14.08.2018 12:00:00 13,3 12,2 21 11 - - SW 1006,6
14.08.2018 11:00:00 13,2 12,1 22 12 - - SSW 1006,2
14.08.2018 10:00:00 13,1 12,1 18 10 - - SSW 1006,6
14.08.2018 09:00:00 13,1 11,9 22 12 - - SW 1006,6
14.08.2018 08:00:00 13,2 12,0 28 15 - - SSW 1006,6
14.08.2018 07:00:00 13,0 11,8 24 13 - - SSW 1006,6
14.08.2018 06:00:00 13,3 11,8 24 13 - - SSW 1007,0
14.08.2018 05:00:00 13,5 11,9 18 10 - - SSW 1007,0
14.08.2018 04:00:00 13,5 12,1 15 8 - - S 1007,2
14.08.2018 03:00:00 13,6 12,3 18 10 - - S 1007,4
14.08.2018 02:00:00 13,5 12,4 16 9 - - SSW 1007,8
14.08.2018 01:00:00 13,5 12,4 16 9 - - SSW 1008,2
14.08.2018 00:00:00 13,3 12,3 18 10 - - SSW 1008,0
13.08.2018 23:00:00 - - - - - - - -
13.08.2018 22:00:00 12,8 11,5 22 12 - - SSE 1008,2
13.08.2018 21:00:00 13,2 11,1 26 14 - - SE 1008,2
13.08.2018 20:00:00 13,2 10,8 26 14 - - SE 1008,2
13.08.2018 19:00:00 13,1 11,0 26 14 - - SE 1008,2
13.08.2018 18:00:00 13,0 10,6 31 17 - - SE 1008,4
13.08.2018 17:00:00 13,8 10,6 26 14 - - SE 1008,6
13.08.2018 16:00:00 13,6 11,3 22 12 - - SE 1008,6
13.08.2018 15:00:00 13,6 11,2 22 12 - - SE 1008,8
13.08.2018 14:00:00 13,6 10,4 28 15 - - ESE 1009,0
13.08.2018 13:00:00 13,3 10,7 28 15 - - ESE 1009,2
13.08.2018 12:00:00 13,4 10,7 28 15 - - SE 1009,2
13.08.2018 11:00:00 13,2 10,1 29 16 - - ESE 1008,8
13.08.2018 10:00:00 13,3 10,2 31 17 - - ESE 1009,2
13.08.2018 09:00:00 13,2 10,1 29 16 - - ESE 1009,2
13.08.2018 08:00:00 13,1 10,4 34 18 - - ESE 1008,8
13.08.2018 07:00:00 13,0 10,5 35 19 - - ESE 1008,6
13.08.2018 06:00:00 13,0 10,6 31 17 - - ESE 1008,8
13.08.2018 05:00:00 12,9 10,6 31 17 - - E 1009,2
13.08.2018 04:00:00 12,8 10,4 31 17 - - E 1009,4
13.08.2018 03:00:00 12,9 10,1 35 19 - - ESE 1009,6
13.08.2018 02:00:00 12,8 10,1 35 19 - - E 1009,8
13.08.2018 01:00:00 13,0 10,2 35 19 - - E 1010,0
13.08.2018 00:00:00 12,9 10,1 34 18 - - E 1010,2
12.08.2018 23:00:00 13,0 10,1 34 18 - - E 1010,6
12.08.2018 22:00:00 13,0 10,0 29 16 - - E 1010,8
12.08.2018 21:00:00 13,5 9,9 34 18 - - ESE 1010,8
12.08.2018 20:00:00 13,6 9,9 34 18 - - ESE 1010,8
12.08.2018 19:00:00 13,5 10,2 34 18 - - E 1010,8
12.08.2018 18:00:00 13,6 10,1 31 17 - - E 1011,0
12.08.2018 17:00:00 13,8 10,1 29 16 - - E 1011,2
12.08.2018 16:00:00 13,5 9,8 29 16 - - E 1011,2
12.08.2018 15:00:00 13,4 9,6 29 16 - - ESE 1011,6
12.08.2018 14:00:00 13,6 9,7 29 16 - - ESE 1011,6
12.08.2018 13:00:00 13,5 9,6 31 17 - - ESE 1011,8
12.08.2018 12:00:00 13,2 9,1 34 18 - - E 1011,8
12.08.2018 11:00:00 12,8 9,3 35 19 - - E 1011,8
12.08.2018 10:00:00 12,5 9,3 37 20 - - E 1012,3
12.08.2018 09:00:00 12,3 9,0 37 20 48 26 E 1012,1
12.08.2018 08:00:00 12,2 9,1 41 22 50 27 E 1012,1
12.08.2018 07:00:00 12,1 9,4 35 19 46 25 E 1011,9
12.08.2018 06:00:00 11,9 9,3 35 19 - - E 1012,1
12.08.2018 05:00:00 12,0 9,3 34 18 - - E 1012,3
12.08.2018 04:00:00 12,2 9,4 31 17 - - E 1012,7
12.08.2018 03:00:00 12,1 9,7 28 15 - - E 1013,3
12.08.2018 02:00:00 12,5 9,4 28 15 - - E 1013,7
12.08.2018 01:00:00 12,6 9,6 28 15 - - ESE 1014,1
12.08.2018 00:00:00 12,5 9,9 29 16 - - E 1014,5
11.08.2018 23:00:00 12,8 9,7 26 14 - - E 1014,9
11.08.2018 22:00:00 12,8 9,2 22 12 - - E 1015,5
11.08.2018 21:00:00 12,7 8,9 18 10 - - E 1015,9
11.08.2018 20:00:00 12,7 8,3 16 9 - - E 1015,9
11.08.2018 19:00:00 13,2 8,3 11 6 - - E 1016,1
11.08.2018 18:00:00 13,4 8,2 9 5 - - NE 1016,3
11.08.2018 17:00:00 13,6 8,2 4 2 - - ENE 1016,5
11.08.2018 16:00:00 13,6 8,9 5 3 - - NNW 1016,9
11.08.2018 15:00:00 13,3 8,7 8 4 - - NNW 1016,9
11.08.2018 14:00:00 13,8 9,2 8 4 - - NW 1016,9
11.08.2018 13:00:00 13,6 8,9 9 5 - - WNW 1017,1
11.08.2018 12:00:00 13,3 8,8 11 6 - - WNW 1017,1
11.08.2018 11:00:00 13,1 8,8 13 7 - - WNW 1017,1
11.08.2018 10:00:00 13,2 9,5 13 7 - - WNW 1016,9
11.08.2018 09:00:00 12,8 9,2 18 10 - - W 1016,9
11.08.2018 08:00:00 12,2 8,7 15 8 - - W 1016,5
11.08.2018 07:00:00 12,4 9,6 21 11 - - W 1016,3
11.08.2018 06:00:00 12,2 9,2 21 11 - - W 1016,1
11.08.2018 05:00:00 12,4 9,2 22 12 - - W 1016,1
11.08.2018 04:00:00 12,2 9,0 16 9 - - W 1016,1
11.08.2018 03:00:00 12,2 8,6 16 9 - - W 1016,5
11.08.2018 02:00:00 12,6 9,2 18 10 - - W 1016,7
11.08.2018 01:00:00 12,6 9,1 18 10 - - W 1016,5
11.08.2018 00:00:00 12,9 9,8 18 10 - - W 1016,5
10.08.2018 23:00:00 13,1 10,1 13 7 - - W 1016,3
10.08.2018 22:00:00 13,1 10,0 11 6 - - W 1015,9
10.08.2018 21:00:00 13,3 9,9 11 6 - - W 1015,5
10.08.2018 20:00:00 13,5 9,8 13 7 - - W 1015,3
10.08.2018 19:00:00 13,4 9,0 11 6 - - W 1014,9
10.08.2018 18:00:00 14,0 9,4 9 5 - - W 1014,8
10.08.2018 17:00:00 14,4 10,2 13 7 - - W 1014,4
10.08.2018 16:00:00 14,0 9,9 13 7 - - WNW 1013,8
10.08.2018 15:00:00 13,5 9,2 13 7 - - WNW 1013,8
10.08.2018 14:00:00 13,6 9,6 13 7 - - WNW 1013,2
10.08.2018 13:00:00 13,6 9,5 13 7 - - WNW 1012,8
10.08.2018 12:00:00 13,6 10,0 13 7 - - W 1012,2
10.08.2018 11:00:00 13,2 9,8 11 6 - - WNW 1011,8
10.08.2018 10:00:00 13,3 10,2 9 5 - - WNW 1011,8
10.08.2018 09:00:00 13,2 10,7 8 4 - - NW 1011,6
10.08.2018 08:00:00 12,7 10,7 8 4 - - W 1011,0
10.08.2018 07:00:00 12,2 10,5 5 3 - - W 1010,9
10.08.2018 06:00:00 12,1 10,3 5 3 - - W 1010,7
10.08.2018 05:00:00 12,1 10,3 9 5 - - W 1010,5
10.08.2018 04:00:00 12,1 10,3 4 2 - - W 1010,7
10.08.2018 03:00:00 12,1 10,0 11 6 - - WSW 1010,7

tt = Température de l'air
td = dewpoint
ff = Vitesse du vent
fx = gusts
dd = Direction du vent
ppp = reduced air pressure

stations d'obs. à proximité